createdAt,value
2023-01-17T00:02:49.466Z,0.80
2023-01-17T00:08:09.985Z,2.87
2023-01-17T00:13:11.909Z,3.97
2023-01-17T00:18:13.735Z,7.37
2023-01-17T00:24:00.228Z,3.03
2023-01-17T00:29:02.182Z,2.40
2023-01-17T00:34:04.100Z,2.53
2023-01-17T00:39:05.819Z,5.13
2023-01-17T00:44:27.135Z,5.10
2023-01-17T00:49:47.582Z,3.57
2023-01-17T00:55:08.326Z,4.50
2023-01-17T01:00:29.332Z,5.67
2023-01-17T01:05:49.968Z,1.80
2023-01-17T01:11:10.710Z,2.13
2023-01-17T01:16:31.674Z,3.03
2023-01-17T01:21:52.859Z,2.80
2023-01-17T01:27:13.218Z,2.50
2023-01-17T01:32:33.733Z,2.70
2023-01-17T01:37:35.558Z,1.10
2023-01-17T01:42:37.579Z,8.00
2023-01-17T01:47:40.771Z,1.83
2023-01-17T01:52:46.674Z,4.63
2023-01-17T01:57:52.078Z,6.30
2023-01-17T02:02:57.539Z,5.07
2023-01-17T02:08:08.710Z,3.83
2023-01-17T02:13:12.785Z,4.60
2023-01-17T02:18:24.131Z,5.00
2023-01-17T02:23:44.152Z,6.87
2023-01-17T02:29:16.266Z,7.10
2023-01-17T02:34:47.136Z,7.50
2023-01-17T02:39:55.409Z,6.23
2023-01-17T02:44:57.454Z,6.57
2023-01-17T02:50:12.269Z,7.53
2023-01-17T02:55:32.853Z,9.03
2023-01-17T03:00:50.423Z,6.37
2023-01-17T03:05:59.768Z,11.10
2023-01-17T03:11:01.789Z,11.03
2023-01-17T03:16:08.060Z,10.87
2023-01-17T03:21:10.424Z,16.53
2023-01-17T03:26:12.450Z,9.07
2023-01-17T03:31:15.948Z,8.63
2023-01-17T03:36:18.567Z,12.77
2023-01-17T03:41:20.443Z,8.97
2023-01-17T03:46:24.869Z,8.10
2023-01-17T03:51:27.210Z,9.37
2023-01-17T03:56:29.265Z,10.20
2023-01-17T04:01:31.351Z,9.63
2023-01-17T04:06:33.573Z,8.70
2023-01-17T04:11:35.384Z,14.40
2023-01-17T04:16:38.331Z,8.47
2023-01-17T04:21:40.464Z,9.87
2023-01-17T04:26:42.372Z,11.03
2023-01-17T04:31:44.299Z,8.73
2023-01-17T04:36:46.583Z,14.67
2023-01-17T04:41:48.459Z,15.27
2023-01-17T04:46:50.290Z,15.67
2023-01-17T04:51:52.373Z,14.80
2023-01-17T04:56:54.232Z,15.47
2023-01-17T05:01:56.459Z,14.90
2023-01-17T05:06:58.529Z,9.97
2023-01-17T05:12:00.833Z,9.67
2023-01-17T05:17:05.487Z,14.30
2023-01-17T05:22:14.853Z,13.83
2023-01-17T05:27:16.799Z,12.97
2023-01-17T05:32:18.795Z,12.10
2023-01-17T05:37:20.771Z,12.03
2023-01-17T05:42:22.639Z,7.00
2023-01-17T05:47:24.435Z,9.80
2023-01-17T05:52:26.292Z,10.90
2023-01-17T05:57:28.263Z,15.57
2023-01-17T06:02:30.392Z,10.90
2023-01-17T06:07:32.914Z,9.97
2023-01-17T06:12:34.706Z,12.50
2023-01-17T06:17:37.122Z,9.87
2023-01-17T06:22:39.373Z,8.47
2023-01-17T06:27:41.297Z,12.63
2023-01-17T06:32:43.500Z,13.73
2023-01-17T06:37:45.384Z,9.73
2023-01-17T06:42:47.582Z,15.50
2023-01-17T06:47:49.340Z,13.40
2023-01-17T06:52:56.558Z,11.83
2023-01-17T06:57:59.585Z,9.43
2023-01-17T07:03:02.089Z,12.13
2023-01-17T07:08:04.197Z,7.77
2023-01-17T07:13:06.119Z,12.97
2023-01-17T07:18:08.148Z,12.73
2023-01-17T07:23:10.057Z,12.77
2023-01-17T07:28:12.050Z,14.63
2023-01-17T07:33:13.928Z,13.17
2023-01-17T07:38:18.029Z,12.27
2023-01-17T07:43:19.881Z,15.43
2023-01-17T07:48:24.288Z,11.60
2023-01-17T07:53:29.845Z,11.17
2023-01-17T07:58:32.464Z,11.23
2023-01-17T08:03:39.726Z,10.93
2023-01-17T08:08:41.896Z,9.93
2023-01-17T08:13:44.263Z,13.30
2023-01-17T08:18:46.251Z,14.73
2023-01-17T08:23:50.012Z,14.13
2023-01-17T08:28:57.167Z,12.43
2023-01-17T08:33:59.291Z,20.03
2023-01-17T08:39:01.558Z,15.97
2023-01-17T08:44:03.598Z,14.20
2023-01-17T08:49:05.645Z,9.07
2023-01-17T08:54:09.507Z,10.90
2023-01-17T08:59:12.173Z,14.43
2023-01-17T09:04:14.748Z,17.27
2023-01-17T09:09:17.576Z,16.33
2023-01-17T09:14:19.590Z,14.60
2023-01-17T09:19:21.710Z,23.60
2023-01-17T09:24:23.715Z,13.57
2023-01-17T09:29:25.564Z,11.77
2023-01-17T09:34:27.737Z,15.87
2023-01-17T09:39:29.760Z,14.33
2023-01-17T09:44:47.741Z,14.53
2023-01-17T09:49:49.813Z,12.33
2023-01-17T09:54:51.984Z,17.13
2023-01-17T10:00:38.605Z,20.73
2023-01-17T10:05:58.897Z,17.33
2023-01-17T10:11:00.840Z,13.30
2023-01-17T10:16:37.479Z,16.40
2023-01-17T10:22:21.004Z,26.57
2023-01-17T10:27:37.454Z,16.27
2023-01-17T10:32:44.958Z,13.23
2023-01-17T10:37:49.046Z,22.77
2023-01-17T10:42:57.754Z,15.90
2023-01-17T10:48:33.763Z,17.07
2023-01-17T10:53:49.228Z,17.53
2023-01-17T10:59:05.263Z,13.47
2023-01-17T11:04:20.655Z,11.23
2023-01-17T11:09:38.113Z,13.13
2023-01-17T11:14:40.291Z,10.10
2023-01-17T11:19:45.453Z,9.90
2023-01-17T11:24:51.321Z,7.40
2023-01-17T11:30:15.711Z,7.77
2023-01-17T11:35:21.169Z,5.60
2023-01-17T11:40:28.849Z,2.37
2023-01-17T11:45:33.600Z,4.33
2023-01-17T11:50:38.703Z,5.57
2023-01-17T11:55:53.424Z,7.63
2023-01-17T12:01:02.034Z,4.40
2023-01-17T12:06:47.830Z,7.40
2023-01-17T12:12:40.098Z,7.57
2023-01-17T12:18:01.608Z,13.03
2023-01-17T12:23:16.160Z,5.47
2023-01-17T12:28:46.123Z,4.80
2023-01-17T12:34:08.312Z,5.50
2023-01-17T12:39:14.148Z,7.33
2023-01-17T12:44:19.735Z,6.47
2023-01-17T12:49:41.700Z,7.07
2023-01-17T12:54:47.420Z,6.13
2023-01-17T13:00:06.707Z,8.63
2023-01-17T13:05:18.472Z,4.77
2023-01-17T13:10:32.224Z,7.73
2023-01-17T13:15:38.983Z,6.43
2023-01-17T13:21:06.039Z,6.00
2023-01-17T13:26:34.087Z,6.50
2023-01-17T13:31:48.365Z,6.60
2023-01-17T13:37:09.309Z,3.87
2023-01-17T13:42:38.626Z,6.20
2023-01-17T13:47:41.573Z,5.23
2023-01-17T13:52:43.543Z,4.83
2023-01-17T13:57:46.634Z,2.17
2023-01-17T14:02:50.554Z,7.73
2023-01-17T14:07:57.246Z,4.47
2023-01-17T14:12:59.641Z,5.63
2023-01-17T14:18:03.577Z,6.03
2023-01-17T14:23:23.275Z,6.10
2023-01-17T14:28:29.299Z,5.83
2023-01-17T14:33:37.102Z,6.27
2023-01-17T14:38:44.492Z,2.37
2023-01-17T14:43:48.243Z,4.60
2023-01-17T14:48:52.409Z,4.53
2023-01-17T14:53:59.635Z,6.00
2023-01-17T14:59:20.131Z,4.00
2023-01-17T15:04:29.992Z,6.97
2023-01-17T15:09:37.096Z,5.43
2023-01-17T15:14:43.433Z,6.60
2023-01-17T15:19:50.079Z,2.80
2023-01-17T15:24:53.561Z,7.03
2023-01-17T15:29:59.162Z,3.73
2023-01-17T15:35:02.889Z,8.67
2023-01-17T15:40:15.899Z,7.80
2023-01-17T15:45:23.031Z,1.83
2023-01-17T15:50:31.085Z,2.37
2023-01-17T15:55:35.895Z,5.83
2023-01-17T16:00:46.913Z,7.07
2023-01-17T16:05:50.561Z,6.70
2023-01-17T16:11:06.825Z,10.53
2023-01-17T16:16:18.895Z,6.73
2023-01-17T16:21:26.755Z,7.30
2023-01-17T16:26:29.292Z,7.63
2023-01-17T16:31:31.416Z,8.77
2023-01-17T16:36:34.914Z,13.07
2023-01-17T16:41:36.761Z,12.10
2023-01-17T16:46:39.085Z,14.07
2023-01-17T16:51:41.362Z,6.47
2023-01-17T16:56:43.570Z,12.33
2023-01-17T17:01:49.211Z,10.13
2023-01-17T17:06:51.087Z,11.37
2023-01-17T17:11:53.082Z,13.47
2023-01-17T17:16:54.888Z,14.43
2023-01-17T17:22:06.582Z,11.10
2023-01-17T17:27:08.654Z,16.70
2023-01-17T17:32:11.905Z,14.63
2023-01-17T17:37:16.089Z,11.23
2023-01-17T17:42:20.249Z,14.30
2023-01-17T17:47:24.059Z,15.03
2023-01-17T17:52:25.895Z,12.43
2023-01-17T17:57:27.870Z,18.23
2023-01-17T18:02:29.951Z,14.80
2023-01-17T18:07:34.253Z,16.67
2023-01-17T18:12:36.118Z,11.00
2023-01-17T18:17:38.133Z,15.57
2023-01-17T18:22:40.791Z,12.60
2023-01-17T18:27:44.906Z,12.10
2023-01-17T18:32:49.843Z,10.80
2023-01-17T18:37:52.587Z,14.03
2023-01-17T18:43:01.886Z,12.80
2023-01-17T18:48:04.248Z,12.80
2023-01-17T18:53:06.150Z,15.07
2023-01-17T18:58:09.129Z,14.07
2023-01-17T19:03:11.114Z,14.93
2023-01-17T19:08:13.045Z,14.30
2023-01-17T19:13:15.008Z,13.00
2023-01-17T19:18:17.172Z,13.13
2023-01-17T19:23:19.120Z,13.27
2023-01-17T19:28:21.782Z,10.73
2023-01-17T19:33:23.978Z,16.30
2023-01-17T19:38:28.082Z,16.80
2023-01-17T19:43:30.233Z,19.10
2023-01-17T19:48:34.477Z,13.77
2023-01-17T19:53:38.099Z,17.90
2023-01-17T19:58:41.034Z,21.80
2023-01-17T20:03:48.632Z,100.70
2023-01-17T20:08:50.527Z,19.23
2023-01-17T20:13:56.703Z,16.47
2023-01-17T20:18:59.375Z,19.50
2023-01-17T20:24:04.803Z,18.50
2023-01-17T20:29:13.577Z,15.63
2023-01-17T20:34:18.672Z,20.93
2023-01-17T20:39:20.581Z,24.87
2023-01-17T20:44:23.979Z,36.03
2023-01-17T20:49:25.840Z,34.43
2023-01-17T20:54:27.804Z,45.90
2023-01-17T20:59:29.748Z,41.30
2023-01-17T21:04:31.691Z,49.20
2023-01-17T21:09:34.134Z,67.10
2023-01-17T21:14:37.555Z,59.03
2023-01-17T21:19:46.912Z,51.10
2023-01-17T21:24:48.961Z,48.63
2023-01-17T21:29:52.913Z,38.67
2023-01-17T21:34:55.559Z,29.83
2023-01-17T21:39:57.961Z,21.93
2023-01-17T21:44:59.938Z,21.53
2023-01-17T21:50:04.151Z,22.40
2023-01-17T21:55:24.916Z,24.57
2023-01-17T22:00:26.908Z,16.43
2023-01-17T22:05:31.062Z,20.23
2023-01-17T22:10:44.438Z,17.93
2023-01-17T22:15:57.961Z,18.90
2023-01-17T22:21:07.297Z,13.77
2023-01-17T22:26:12.532Z,16.43
2023-01-17T22:31:16.916Z,12.20
2023-01-17T22:36:20.264Z,12.47
2023-01-17T22:41:24.961Z,25.83
2023-01-17T22:46:30.686Z,21.57
2023-01-17T22:51:32.733Z,24.17
2023-01-17T22:56:34.631Z,20.33
2023-01-17T23:01:37.410Z,22.33
2023-01-17T23:06:43.165Z,19.27
2023-01-17T23:11:49.663Z,16.80
2023-01-17T23:17:15.741Z,18.13
2023-01-17T23:22:19.877Z,19.30
2023-01-17T23:28:00.649Z,23.60
2023-01-17T23:33:03.728Z,19.83
2023-01-17T23:38:24.032Z,20.10
2023-01-17T23:43:25.855Z,22.17
2023-01-17T23:48:28.364Z,20.80
2023-01-17T23:53:30.131Z,22.87
2023-01-17T23:58:33.048Z,22.40
